GCGM/GMZ METAR and TAF weather

Enter ICAO airport designator
Station Type Date Time Source
GCGM METAR 2019/08/21 22:00 UTC NOAA

GCGM 212200Z AUTO VRB02KT 9999 NCD 22/19 Q1016 RMK R09/VRB02KT ARP/VRB02KT


Station Type Date Time Source
GCGM Decoded METAR 2019/08/21 22:00 UTC NOAA

Station name not available
Aug 21, 2019 - 06:00 PM EDT / 2019.08.21 2200 UTC
Wind: Variable at 2 MPH (2 KT):0
Visibility: greater than 7 mile(s):0
Temperature: 71 F (22 C)
Dew Point: 66 F (19 C)
Relative Humidity: 83%
Pressure (altimeter): 30.00 in. Hg (1016 hPa)
ob: GCGM 212200Z AUTO VRB02KT 9999 NCD 22/19 Q1016 RMK R09/VRB02KT ARP/VRB02KT
cycle: 22

Station Type Date Time Source
GCGM TAF 2019/08/21 21:00 UTC NOAA

TAF GCGM 212000Z 2121/2221 28004KT 9999 FEW015 TX27/2214Z TN20/2205Z

Example: see airport list